Sunny Hill, Arkansas
Current Conditions -  °F | °C
As of 3:56 PM on Tuesday 21 Oct 2014 (Local Time) from KSRC Reporting Station
Clear Clear  
Wind Chill: 78°   Ceiling: Unl
Heat Index: 79°   Visibility: 10mi
Dew Point: 50°   Wind: 5mph
Humidity: 37%   Direction: 40°NE
Pressure: 30.06"   Gusts: NA
Location:  35.2662°N, 91.8491°W
Report Text: KSRC 212056Z AUTO 04004KT 10SM CLR 26/10 A3006 RMK AO2 SLP182 T02560100 56018 TSNO
Loading
Personal Weather Stations






























Interactive Weather Map
Tropical Storm Tracking
New forecast layout! Learn more

10-Day Weather Forecast

Advertisements
Track Severe Weather on mobile